Friday Harbor, WA

9:29 PM PST on December 19, 2014 (GMT -0800)
San Juan Wx | Change Station
CLOSE
Current Station
Personal Weather Station
Location: Friday Harbor, WA
Elevation: 223 ft
Nearby Weather Stations
Active Advisory: High Wind Warning Active Notice: Record Report

Elev 223 ft 48.51 °N, 123.04 °W | Updated 11 minutes ago

Overcast
Overcast
46.6 °F
Feels Like 39 °F
N
20.2
Wind Variable Wind from South

Today
High -- | Low -- °F
--% Chance of Precip.
Yesterday
High -- | Low -- °F
Precip. -- in
8:00 AM 4:18 PM
Waning Crescent, 4% visible
Pressure 29.85 in
Visibility 10.0 miles
Clouds Overcast 2000 ft
Windchill 39 °F
Dew Point 44 °F
Humidity 89%
Rainfall 0.02 in
Snow Depth Not available.
UV 0 out of 12
Pollen .40 out of 12
Air Quality Not available.
Flu Activity Not available.
METAR KFHR 200453Z AUTO 14016G21KT 10SM OVC020 09/06 A2985 RMK AO2 SLP107 T00890056

More Conditions Fewer Conditions

Pressure 29.85 in
Visibility 10.0 miles
Clouds Overcast 2000 ft
Windchill 39 °F
Dew Point 44 °F
Humidity 89%
Rainfall 0.02 in
Snow Depth Not available.
UV 0 out of 12
Pollen .40 out of 12
Air Quality Not available.
Flu Activity Not available.
METAR KFHR 200453Z AUTO 14016G21KT 10SM OVC020 09/06 A2985 RMK AO2 SLP107 T00890056

More Conditions Fewer Conditions

10-Day Weather Forecast

Almanac

Astronomy

Dec. 19, 2014 Rise Set
Actual Time
Civil Twilight
Nautical Twilight
Astronomical Twilight
Moon
Length of Visible Light
Length of Day
Tomorrow will be .
, % of the Moon is Illuminated

Today's Extremes

State Highs State Lows

Community

WunderPhotos

Upload Photos

1,779,137 photos uploaded!

WunderBlogs® & News

Nearby

Air Quality

  Air Quality AQ Index Pollutant
Not available.

Snow Depth

Station Depth Elevation

Earthquake Activity

City Distance Mag. Time & Date
Minimum magnitude displayed is 2.5.

Coastal Water Temperatures

Place Temperature

Nearby Weather Stations